Main page
METAR-TAF:

METAR-TAF

Airports :

Inca Manco Cápac International Airport

Juliaca, Peru

latitude: 15-29S, longitude: 070-09W, elevation: 3826 m

Current weather observation

The report was made 5 hours and 2 minutes ago, at 00:00 UTC
Wind 7 kt from the Southwest, varying between South and West/Northwest
Temperature 13°C
Humidity 22%
Pressure 1031 hPa
Visibility 10 km or more
Few clouds at a height of 10000 ft

METAR: SPJL 180000Z 23007KT 190V290 9999 FEW100 13/M08 Q1031 RMK BIRD HAZARD RWY 12/30 PP000

Time: 00:02 (05:02 UTC)

Forecast

The report was made 12 hours and 2 minutes ago, at 17:00 UTC
Forecast valid from 17 at 18 UTC to 18 at 18 UTC
Wind 6 kt from the Northeast
Visibility 10 km or more
Scattered clouds at a height of 5000 ft
Becoming
from 17 at 19 UTC to 17 at 21 UTC
Wind 10 kt from the South/Southeast
Becoming
from 17 at 22 UTC to 17 at 24 UTC
Wind 5 kt from the West/Northwest

TAF: SPJL 171700Z 1718/1818 05006KT 9999 SCT050 TX18/1719Z TNM03/1810Z BECMG 1719/1721 15010KT BECMG 1722/1724 30005KT

Weather observations and forecasts of more than 4000 airports (METAR and TAF reports).

The available stations are represented by yellow and red dots on the map.

Hover mouse over dot to see the name of the station.

Then click to see weather observations and forecasts.

To change the map : click on the green buttons with a black cross to zoom in, on the green button with a dash to zoom out, or on the green arrows for adjacent maps.


METAR-TAF: